createdAt,value
2022-11-29T00:15:26.819Z,938
2022-11-29T00:35:26.867Z,939
2022-11-29T01:15:27.092Z,939
2022-11-29T01:35:27.062Z,941
2022-11-29T01:55:27.102Z,943
2022-11-29T02:15:27.224Z,946
2022-11-29T02:35:27.212Z,943
2022-11-29T02:55:27.261Z,940
2022-11-29T03:15:27.352Z,941
2022-11-29T03:35:27.368Z,940
2022-11-29T03:55:27.436Z,937
2022-11-29T04:15:27.495Z,936
2022-11-29T04:35:27.552Z,937
2022-11-29T04:55:30.818Z,943
2022-11-29T05:15:27.644Z,944
2022-11-29T05:35:27.705Z,948
2022-11-29T05:55:27.777Z,949
2022-11-29T06:15:27.836Z,952
2022-11-29T06:35:27.889Z,958
2022-11-29T06:55:28.016Z,960
2022-11-29T07:15:28.027Z,964
2022-11-29T07:35:28.049Z,962
2022-11-29T07:55:28.138Z,961
2022-11-29T08:15:28.178Z,961
2022-11-29T08:35:28.231Z,959
2022-11-29T08:55:28.290Z,955
2022-11-29T09:15:28.337Z,953
2022-11-29T09:35:28.374Z,948
2022-11-29T09:55:28.427Z,945
2022-11-29T10:15:28.503Z,935
2022-11-29T10:35:28.556Z,928
2022-11-29T10:55:28.616Z,924
2022-11-29T11:15:28.663Z,920
2022-11-29T11:35:28.756Z,918
2022-11-29T11:55:28.772Z,923
2022-11-29T12:15:28.894Z,931
2022-11-29T12:35:28.887Z,937
2022-11-29T12:55:28.952Z,938
2022-11-29T13:15:29.007Z,939
2022-11-29T13:35:29.065Z,939
2022-11-29T13:55:29.167Z,936
2022-11-29T14:15:29.191Z,938
2022-11-29T14:35:29.230Z,939
2022-11-29T14:55:29.298Z,939
2022-11-29T15:15:29.430Z,935
2022-11-29T15:35:29.390Z,931
2022-11-29T15:55:29.432Z,929
2022-11-29T16:15:29.493Z,927
2022-11-29T16:35:29.586Z,924
2022-11-29T16:55:29.621Z,923
2022-11-29T17:15:29.680Z,920
2022-11-29T17:35:29.821Z,917
2022-11-29T17:55:29.886Z,910
2022-11-29T18:15:29.859Z,906
2022-11-29T18:35:29.913Z,907
2022-11-29T18:55:29.963Z,909
2022-11-29T19:15:30.032Z,917
2022-11-29T19:35:30.062Z,926
2022-11-29T19:55:30.147Z,932
2022-11-29T20:15:30.262Z,934
2022-11-29T20:35:30.236Z,934
2022-11-29T20:55:30.369Z,935
2022-11-29T21:15:30.360Z,933
2022-11-29T21:35:30.423Z,932
2022-11-29T21:55:32.177Z,935
2022-11-29T22:15:30.527Z,936
2022-11-29T22:35:30.588Z,940
2022-11-29T22:55:30.647Z,938
2022-11-29T23:15:30.721Z,936
2022-11-29T23:35:30.774Z,931
2022-11-29T23:55:30.815Z,926
